LFMV/AVN METAR and TAF weather

Enter ICAO airport designator
Station Type Date Time Source
LFMV METAR 2019/04/18 10:30 UTC NOAA

LFMV 181030Z AUTO 20007KT 170V240 CAVOK 20/06 Q1021 NOSIG


Station Type Date Time Source
LFMV Decoded METAR 2019/04/18 10:30 UTC NOAA

Station name not available
Apr 18, 2019 - 06:30 AM EDT / 2019.04.18 1030 UTC
Wind: from the SSW (200 degrees) at 8 MPH (7 KT) (direction variable):0
Visibility: greater than 7 mile(s):0
Temperature: 68 F (20 C)
Dew Point: 42 F (6 C)
Relative Humidity: 39%
Pressure (altimeter): 30.15 in. Hg (1021 hPa)
ob: LFMV 181030Z AUTO 20007KT 170V240 CAVOK 20/06 Q1021 NOSIG
cycle: 10

Station Type Date Time Source
LFMV TAF 2019/04/18 09:00 UTC NOAA

TAF LFMV 180800Z 1809/1909 VRB03KT CAVOK

Example: see airport list